createdAt,value
2023-03-25T00:00:28.659Z,4.10
2023-03-25T00:02:58.989Z,7.70
2023-03-25T00:05:27.845Z,1.87
2023-03-25T00:07:56.364Z,3.07
2023-03-25T00:10:24.496Z,3.00
2023-03-25T00:12:52.893Z,3.67
2023-03-25T00:15:22.269Z,4.40
2023-03-25T00:17:50.724Z,4.93
2023-03-25T00:20:20.549Z,6.27
2023-03-25T00:22:48.710Z,4.50
2023-03-25T00:25:20.591Z,3.53
2023-03-25T00:27:50.935Z,4.13
2023-03-25T00:30:21.011Z,7.03
2023-03-25T00:32:52.758Z,4.20
2023-03-25T00:35:24.145Z,7.10
2023-03-25T00:37:57.388Z,4.40
2023-03-25T00:40:25.961Z,3.07
2023-03-25T00:42:54.089Z,8.40
2023-03-25T00:45:22.378Z,7.10
2023-03-25T00:47:50.712Z,2.70
2023-03-25T00:50:19.171Z,5.83
2023-03-25T00:52:48.846Z,3.23
2023-03-25T00:55:18.435Z,3.20
2023-03-25T00:57:46.697Z,4.30
2023-03-25T01:00:17.520Z,4.43
2023-03-25T01:02:46.810Z,5.47
2023-03-25T01:05:15.333Z,2.90
2023-03-25T01:07:43.506Z,3.53
2023-03-25T01:10:13.187Z,2.53
2023-03-25T01:12:41.443Z,2.10
2023-03-25T01:15:11.706Z,3.40
2023-03-25T01:17:40.090Z,5.87
2023-03-25T01:20:10.153Z,2.53
2023-03-25T01:22:38.741Z,4.20
2023-03-25T01:25:07.333Z,5.33
2023-03-25T01:27:37.225Z,5.27
2023-03-25T01:30:07.192Z,2.33
2023-03-25T01:32:35.475Z,3.97
2023-03-25T01:35:04.986Z,2.70
2023-03-25T01:37:36.513Z,5.23
2023-03-25T01:40:08.364Z,6.33
2023-03-25T01:42:37.945Z,3.90
2023-03-25T01:45:20.411Z,3.03
2023-03-25T01:47:50.993Z,2.80
2023-03-25T01:50:21.137Z,3.97
2023-03-25T01:52:52.114Z,2.33
2023-03-25T01:55:24.045Z,1.90
2023-03-25T01:57:56.367Z,0.93
2023-03-25T02:00:26.580Z,2.80
2023-03-25T02:02:59.340Z,2.10
2023-03-25T02:05:35.978Z,2.53
2023-03-25T02:08:09.058Z,2.10
2023-03-25T02:10:38.284Z,1.67
2023-03-25T02:13:08.663Z,5.17
2023-03-25T02:16:12.409Z,2.87
2023-03-25T02:18:49.625Z,4.20
2023-03-25T02:21:47.087Z,4.23
2023-03-25T02:24:53.976Z,4.70
2023-03-25T02:28:04.804Z,2.47
2023-03-25T02:31:08.387Z,3.43
2023-03-25T02:34:07.846Z,1.97
2023-03-25T02:37:09.187Z,5.30
2023-03-25T02:39:43.928Z,1.93
2023-03-25T02:42:18.228Z,2.70
2023-03-25T02:44:54.842Z,3.77
2023-03-25T02:47:26.010Z,7.13
2023-03-25T02:49:58.185Z,3.03
2023-03-25T02:52:29.866Z,3.60
2023-03-25T02:55:05.267Z,3.60
2023-03-25T02:57:36.426Z,4.63
2023-03-25T03:00:14.474Z,7.57
2023-03-25T03:02:46.255Z,10.20
2023-03-25T03:05:25.703Z,5.07
2023-03-25T03:08:01.232Z,3.00
2023-03-25T03:10:35.856Z,4.70
2023-03-25T03:13:14.005Z,4.47
2023-03-25T03:15:53.058Z,2.60
2023-03-25T03:18:34.431Z,3.40
2023-03-25T03:21:11.119Z,2.33
2023-03-25T03:23:52.244Z,2.93
2023-03-25T03:26:29.614Z,6.63
2023-03-25T03:29:04.743Z,3.73
2023-03-25T03:31:48.722Z,4.67
2023-03-25T03:34:34.352Z,2.03
2023-03-25T03:37:05.798Z,1.87
2023-03-25T03:39:36.537Z,6.00
2023-03-25T03:42:12.162Z,5.83
2023-03-25T03:44:42.899Z,4.80
2023-03-25T03:47:14.125Z,4.83
2023-03-25T03:49:46.138Z,2.60
2023-03-25T03:52:18.014Z,4.07
2023-03-25T03:54:49.331Z,5.47
2023-03-25T03:57:23.945Z,3.63
2023-03-25T03:59:59.341Z,3.63
2023-03-25T04:02:34.565Z,2.90
2023-03-25T04:05:03.217Z,5.83
2023-03-25T04:07:38.965Z,4.73
2023-03-25T04:10:15.063Z,2.80
2023-03-25T04:12:49.247Z,5.10
2023-03-25T04:15:18.064Z,8.03
2023-03-25T04:17:48.009Z,4.67
2023-03-25T04:20:23.663Z,5.03
2023-03-25T04:22:52.328Z,3.30
2023-03-25T04:25:25.164Z,4.60
2023-03-25T04:27:58.809Z,6.50
2023-03-25T04:30:31.010Z,2.70
2023-03-25T04:33:00.778Z,3.17
2023-03-25T04:35:29.122Z,4.43
2023-03-25T04:37:57.661Z,3.93
2023-03-25T04:40:26.711Z,3.30
2023-03-25T04:42:57.362Z,3.20
2023-03-25T04:45:26.308Z,3.43
2023-03-25T04:47:55.037Z,2.80
2023-03-25T04:50:25.790Z,3.57
2023-03-25T04:52:54.961Z,7.00
2023-03-25T04:55:23.571Z,3.70
2023-03-25T04:57:53.596Z,4.73
2023-03-25T05:00:24.956Z,2.90
2023-03-25T05:02:54.879Z,3.53
2023-03-25T05:05:25.487Z,6.73
2023-03-25T05:07:55.331Z,5.87
2023-03-25T05:10:25.052Z,1.97
2023-03-25T05:12:59.643Z,3.67
2023-03-25T05:15:30.491Z,6.77
2023-03-25T05:17:58.676Z,1.90
2023-03-25T05:20:26.913Z,3.37
2023-03-25T05:22:57.532Z,4.50
2023-03-25T05:25:25.844Z,4.70
2023-03-25T05:27:54.375Z,3.10
2023-03-25T05:30:22.519Z,7.73
2023-03-25T05:32:56.760Z,3.13
2023-03-25T05:35:26.604Z,5.20
2023-03-25T05:37:55.824Z,3.53
2023-03-25T05:40:25.268Z,5.10
2023-03-25T05:42:55.010Z,4.10
2023-03-25T05:45:23.402Z,6.80
2023-03-25T05:47:54.172Z,9.23
2023-03-25T05:50:23.006Z,6.30
2023-03-25T05:52:51.763Z,4.87
2023-03-25T05:55:22.692Z,8.60
2023-03-25T05:57:50.911Z,11.67
2023-03-25T06:00:21.224Z,4.90
2023-03-25T06:02:53.548Z,5.47
2023-03-25T06:05:23.691Z,5.33
2023-03-25T06:07:56.166Z,4.53
2023-03-25T06:10:24.963Z,4.07
2023-03-25T06:12:54.100Z,3.30
2023-03-25T06:15:28.669Z,5.40
2023-03-25T06:17:58.743Z,7.10
2023-03-25T06:20:27.614Z,8.47
2023-03-25T06:22:56.150Z,5.00
2023-03-25T06:25:26.651Z,6.90
2023-03-25T06:27:56.031Z,7.90
2023-03-25T06:30:24.389Z,5.47
2023-03-25T06:32:55.820Z,6.50
2023-03-25T06:35:25.572Z,11.37
2023-03-25T06:37:53.710Z,6.73
2023-03-25T06:40:24.133Z,7.43
2023-03-25T06:42:52.344Z,4.27
2023-03-25T06:45:20.639Z,9.47
2023-03-25T06:47:48.833Z,6.53
2023-03-25T06:50:17.143Z,8.57
2023-03-25T06:52:46.666Z,4.33
2023-03-25T06:55:14.864Z,4.20
2023-03-25T06:57:44.031Z,3.47
2023-03-25T07:00:13.355Z,4.90
2023-03-25T07:02:41.660Z,8.67
2023-03-25T07:05:10.578Z,3.10
2023-03-25T07:07:38.880Z,4.10
2023-03-25T07:10:09.497Z,6.03
2023-03-25T07:12:37.638Z,8.23
2023-03-25T07:15:06.699Z,2.50
2023-03-25T07:17:35.190Z,13.03
2023-03-25T07:20:03.562Z,3.90
2023-03-25T07:22:31.689Z,1.80
2023-03-25T07:24:59.920Z,6.03
2023-03-25T07:27:29.427Z,3.30
2023-03-25T07:29:57.560Z,3.47
2023-03-25T07:32:25.814Z,3.47
2023-03-25T07:34:54.138Z,5.20
2023-03-25T07:37:22.372Z,4.27
2023-03-25T07:39:50.683Z,6.97
2023-03-25T07:42:18.765Z,3.37
2023-03-25T07:44:48.403Z,2.83
2023-03-25T07:47:16.600Z,1.60
2023-03-25T07:49:44.755Z,2.83
2023-03-25T07:52:12.889Z,5.73
2023-03-25T07:54:41.046Z,2.50
2023-03-25T07:57:09.227Z,4.17
2023-03-25T07:59:37.397Z,4.53
2023-03-25T08:02:07.656Z,3.33
2023-03-25T08:04:36.160Z,3.20
2023-03-25T08:07:04.359Z,5.60
2023-03-25T08:09:32.600Z,3.97
2023-03-25T08:12:00.909Z,4.33
2023-03-25T08:14:29.347Z,3.87
2023-03-25T08:16:57.556Z,3.07
2023-03-25T08:19:27.291Z,4.40
2023-03-25T08:21:55.972Z,3.47
2023-03-25T08:24:25.085Z,4.67
2023-03-25T08:26:53.865Z,5.13
2023-03-25T08:29:22.099Z,5.57
2023-03-25T08:31:52.326Z,4.43
2023-03-25T08:34:21.722Z,3.43
2023-03-25T08:36:51.347Z,6.20
2023-03-25T08:39:21.992Z,5.30
2023-03-25T08:41:50.292Z,2.40
2023-03-25T08:44:18.448Z,5.17
2023-03-25T08:46:46.647Z,6.40
2023-03-25T08:49:14.816Z,8.43
2023-03-25T08:51:42.932Z,6.47
2023-03-25T08:54:12.655Z,6.20
2023-03-25T08:56:41.108Z,5.97
2023-03-25T08:59:09.377Z,5.53
2023-03-25T09:01:37.927Z,5.30
2023-03-25T09:04:06.205Z,4.50
2023-03-25T09:06:47.678Z,9.63
2023-03-25T09:09:24.422Z,11.83
2023-03-25T09:11:52.632Z,8.13
2023-03-25T09:14:20.877Z,9.50
2023-03-25T09:16:51.836Z,5.20
2023-03-25T09:19:20.026Z,6.43
2023-03-25T09:21:48.178Z,4.73
2023-03-25T09:24:16.337Z,5.63
2023-03-25T09:26:45.893Z,2.93
2023-03-25T09:29:14.041Z,6.13
2023-03-25T09:31:42.458Z,6.20
2023-03-25T09:34:11.018Z,4.60
2023-03-25T09:36:39.360Z,4.73
2023-03-25T09:39:08.268Z,7.03
2023-03-25T09:41:55.746Z,6.10
2023-03-25T09:44:29.439Z,5.13
2023-03-25T09:47:01.629Z,5.60
2023-03-25T09:49:39.379Z,5.70
2023-03-25T09:52:15.949Z,6.77
2023-03-25T09:54:50.621Z,8.90
2023-03-25T09:57:24.129Z,9.17
2023-03-25T09:59:53.164Z,4.20
2023-03-25T10:02:33.413Z,5.90
2023-03-25T10:05:18.488Z,7.60
2023-03-25T10:08:02.235Z,8.77
2023-03-25T10:10:37.933Z,8.53
2023-03-25T10:13:20.033Z,5.20
2023-03-25T10:15:54.926Z,8.00
2023-03-25T10:18:48.827Z,7.70
2023-03-25T10:21:20.416Z,9.43
2023-03-25T10:23:55.260Z,7.07
2023-03-25T10:26:29.591Z,7.90
2023-03-25T10:29:04.966Z,6.53
2023-03-25T10:31:37.318Z,8.40
2023-03-25T10:34:08.542Z,8.10
2023-03-25T10:36:41.308Z,8.97
2023-03-25T10:39:18.905Z,8.13
2023-03-25T10:41:53.002Z,7.30
2023-03-25T10:44:27.106Z,4.97
2023-03-25T10:47:00.010Z,7.70
2023-03-25T10:49:31.298Z,5.00
2023-03-25T10:52:00.530Z,9.10
2023-03-25T10:54:31.812Z,7.00
2023-03-25T10:57:03.082Z,10.50
2023-03-25T10:59:38.373Z,12.10
2023-03-25T11:02:14.695Z,9.23
2023-03-25T11:04:45.652Z,10.03
2023-03-25T11:07:20.607Z,4.40
2023-03-25T11:09:49.506Z,7.00
2023-03-25T11:12:25.190Z,5.40
2023-03-25T11:15:01.915Z,5.20
2023-03-25T11:17:30.281Z,6.03
2023-03-25T11:20:03.551Z,4.80
2023-03-25T11:22:35.680Z,6.20
2023-03-25T11:25:07.664Z,6.27
2023-03-25T11:27:45.765Z,5.57
2023-03-25T11:30:19.756Z,8.10
2023-03-25T11:32:59.226Z,7.83
2023-03-25T11:35:29.734Z,7.57
2023-03-25T11:37:59.778Z,13.30
2023-03-25T11:40:29.557Z,7.47
2023-03-25T11:42:59.699Z,6.13
2023-03-25T11:45:35.803Z,6.50
2023-03-25T11:48:12.490Z,5.90
2023-03-25T11:50:47.613Z,8.43
2023-03-25T11:53:19.611Z,5.00
2023-03-25T11:55:51.465Z,5.50
2023-03-25T11:58:22.038Z,4.33
2023-03-25T12:00:53.542Z,4.30
2023-03-25T12:03:24.522Z,8.50
2023-03-25T12:06:01.688Z,8.70
2023-03-25T12:08:34.852Z,4.17
2023-03-25T12:11:08.596Z,3.93
2023-03-25T12:13:52.400Z,8.50
2023-03-25T12:16:31.401Z,8.33
2023-03-25T12:19:12.640Z,6.43
2023-03-25T12:21:56.499Z,7.50
2023-03-25T12:24:40.690Z,6.30
2023-03-25T12:27:26.013Z,5.57
2023-03-25T12:30:02.037Z,8.60
2023-03-25T12:32:39.728Z,6.07
2023-03-25T12:35:22.083Z,5.27
2023-03-25T12:38:05.399Z,5.57
2023-03-25T12:40:51.519Z,6.80
2023-03-25T12:43:28.586Z,4.43
2023-03-25T12:46:14.322Z,9.37
2023-03-25T12:49:02.564Z,6.63
2023-03-25T12:51:41.653Z,4.20
2023-03-25T12:54:27.049Z,5.67
2023-03-25T12:57:01.863Z,7.53
2023-03-25T13:00:07.946Z,5.33
2023-03-25T13:02:58.356Z,9.17
2023-03-25T13:05:36.673Z,8.07
2023-03-25T13:08:09.115Z,4.23
2023-03-25T13:10:39.576Z,3.93
2023-03-25T13:13:13.235Z,6.90
2023-03-25T13:15:44.274Z,4.90
2023-03-25T13:18:15.954Z,6.00
2023-03-25T13:20:51.295Z,7.87
2023-03-25T13:23:24.196Z,3.93
2023-03-25T13:25:57.547Z,5.93
2023-03-25T13:28:38.164Z,8.27
2023-03-25T13:31:09.009Z,3.73
2023-03-25T13:33:42.994Z,5.50
2023-03-25T13:36:20.086Z,9.10
2023-03-25T13:38:52.212Z,5.87
2023-03-25T13:41:26.697Z,6.00
2023-03-25T13:44:03.379Z,6.00
2023-03-25T13:46:39.280Z,5.50
2023-03-25T13:49:14.945Z,6.83
2023-03-25T13:51:44.566Z,3.50
2023-03-25T13:54:21.857Z,9.27
2023-03-25T13:57:31.019Z,10.37
2023-03-25T14:00:30.949Z,8.27
2023-03-25T14:03:29.760Z,5.57
2023-03-25T14:06:24.030Z,4.33
2023-03-25T14:09:15.905Z,10.40
2023-03-25T14:11:47.301Z,13.87
2023-03-25T14:14:18.611Z,9.37
2023-03-25T14:16:51.149Z,9.77
2023-03-25T14:19:25.414Z,9.63
2023-03-25T14:21:53.663Z,6.33
2023-03-25T14:24:29.384Z,12.20
2023-03-25T14:27:02.308Z,7.83
2023-03-25T14:29:37.872Z,7.53
2023-03-25T14:32:32.085Z,4.20
2023-03-25T14:35:41.374Z,2.33
2023-03-25T14:38:37.866Z,8.00
2023-03-25T14:41:07.636Z,7.43
2023-03-25T14:43:40.151Z,3.27
2023-03-25T14:46:19.218Z,4.23
2023-03-25T14:48:51.996Z,8.40
2023-03-25T14:51:55.750Z,7.07
2023-03-25T14:54:30.791Z,6.50
2023-03-25T14:57:06.036Z,4.50
2023-03-25T14:59:40.631Z,5.23
2023-03-25T15:02:17.348Z,6.43
2023-03-25T15:04:46.988Z,3.80
2023-03-25T15:07:20.419Z,5.90
2023-03-25T15:09:53.664Z,4.37
2023-03-25T15:12:26.213Z,4.37
2023-03-25T15:14:57.294Z,5.50
2023-03-25T15:17:44.953Z,8.70
2023-03-25T15:20:29.775Z,8.60
2023-03-25T15:23:23.095Z,7.23
2023-03-25T15:25:54.583Z,10.87
2023-03-25T15:28:36.679Z,7.47
2023-03-25T15:31:38.322Z,6.13
2023-03-25T15:34:19.995Z,7.57
2023-03-25T15:37:35.941Z,13.10
2023-03-25T15:40:20.006Z,8.47
2023-03-25T15:43:39.292Z,11.67
2023-03-25T15:46:50.817Z,5.27
2023-03-25T15:49:35.679Z,6.10
2023-03-25T15:52:23.996Z,6.80
2023-03-25T15:54:55.449Z,2.60
2023-03-25T15:57:27.527Z,7.17
2023-03-25T16:00:07.207Z,5.80
2023-03-25T16:02:41.502Z,5.33
2023-03-25T16:05:10.095Z,6.93
2023-03-25T16:07:38.457Z,8.50
2023-03-25T16:10:14.645Z,5.83
2023-03-25T16:12:44.736Z,7.73
2023-03-25T16:15:17.511Z,3.40
2023-03-25T16:17:47.458Z,8.00
2023-03-25T16:20:19.195Z,6.67
2023-03-25T16:22:51.446Z,5.73
2023-03-25T16:25:23.311Z,3.50
2023-03-25T16:27:55.875Z,3.20
2023-03-25T16:30:28.966Z,5.53
2023-03-25T16:33:12.480Z,8.47
2023-03-25T16:35:42.825Z,6.60
2023-03-25T16:38:15.426Z,6.20
2023-03-25T16:40:44.476Z,3.97
2023-03-25T16:43:17.628Z,7.90
2023-03-25T16:45:49.000Z,6.20
2023-03-25T16:48:20.266Z,8.00
2023-03-25T16:50:49.177Z,5.03
2023-03-25T16:53:19.002Z,6.20
2023-03-25T16:55:50.685Z,7.83
2023-03-25T16:58:22.450Z,13.10
2023-03-25T17:00:54.385Z,14.23
2023-03-25T17:03:42.901Z,7.00
2023-03-25T17:06:20.396Z,11.50
2023-03-25T17:08:54.160Z,5.43
2023-03-25T17:11:23.877Z,7.27
2023-03-25T17:13:56.113Z,6.53
2023-03-25T17:16:29.898Z,5.67
2023-03-25T17:18:58.714Z,7.50
2023-03-25T17:21:30.252Z,10.30
2023-03-25T17:24:00.758Z,8.70
2023-03-25T17:26:34.334Z,10.17
2023-03-25T17:29:07.108Z,6.27
2023-03-25T17:31:41.062Z,7.37
2023-03-25T17:34:12.691Z,5.13
2023-03-25T17:36:43.059Z,5.37
2023-03-25T17:39:19.265Z,4.40
2023-03-25T17:41:48.342Z,5.00
2023-03-25T17:44:17.880Z,10.63
2023-03-25T17:46:47.770Z,6.80
2023-03-25T17:49:18.284Z,8.07
2023-03-25T17:51:47.034Z,8.27
2023-03-25T17:54:15.500Z,6.97
2023-03-25T17:56:44.285Z,7.07
2023-03-25T17:59:17.283Z,8.13
2023-03-25T18:01:47.448Z,7.30
2023-03-25T18:04:16.523Z,10.17
2023-03-25T18:06:46.168Z,8.30
2023-03-25T18:09:17.780Z,8.50
2023-03-25T18:11:46.998Z,10.47
2023-03-25T18:14:15.405Z,3.13
2023-03-25T18:16:43.939Z,2.60
2023-03-25T18:19:16.957Z,8.00
2023-03-25T18:21:45.470Z,4.83
2023-03-25T18:24:13.976Z,5.43
2023-03-25T18:26:43.273Z,5.13
2023-03-25T18:29:13.514Z,3.77
2023-03-25T18:31:41.753Z,6.50
2023-03-25T18:34:12.282Z,5.73
2023-03-25T18:36:43.084Z,7.13
2023-03-25T18:39:14.882Z,5.17
2023-03-25T18:41:43.297Z,6.77
2023-03-25T18:44:12.387Z,5.33
2023-03-25T18:46:41.664Z,6.67
2023-03-25T18:49:13.989Z,9.87
2023-03-25T18:51:43.712Z,9.93
2023-03-25T18:54:12.144Z,4.27
2023-03-25T18:56:41.484Z,6.33
2023-03-25T18:59:12.361Z,8.03
2023-03-25T19:01:41.272Z,8.70
2023-03-25T19:04:10.110Z,6.80
2023-03-25T19:06:39.904Z,8.37
2023-03-25T19:09:15.380Z,8.83
2023-03-25T19:11:48.130Z,14.53
2023-03-25T19:14:16.958Z,9.53
2023-03-25T19:16:57.210Z,7.03
2023-03-25T19:19:31.641Z,8.80
2023-03-25T19:21:59.794Z,8.47
2023-03-25T19:24:29.353Z,9.70
2023-03-25T19:26:57.718Z,17.17
2023-03-25T19:29:26.329Z,11.90
2023-03-25T19:31:54.989Z,9.77
2023-03-25T19:34:23.184Z,9.73
2023-03-25T19:36:53.262Z,8.77
2023-03-25T19:39:22.842Z,13.63
2023-03-25T19:41:55.753Z,11.20
2023-03-25T19:44:27.227Z,16.23
2023-03-25T19:46:55.421Z,7.37
2023-03-25T19:49:36.847Z,9.83
2023-03-25T19:52:08.129Z,11.27
2023-03-25T19:54:38.761Z,10.27
2023-03-25T19:57:09.610Z,9.93
2023-03-25T19:59:38.192Z,14.40
2023-03-25T20:02:07.086Z,13.40
2023-03-25T20:04:36.387Z,13.50
2023-03-25T20:07:06.047Z,10.33
2023-03-25T20:09:34.532Z,9.57
2023-03-25T20:12:06.149Z,12.63
2023-03-25T20:14:35.972Z,15.67
2023-03-25T20:17:04.257Z,13.53
2023-03-25T20:19:33.922Z,15.17
2023-03-25T20:22:12.228Z,8.80
2023-03-25T20:24:51.970Z,12.20
2023-03-25T20:27:23.384Z,13.80
2023-03-25T20:29:52.900Z,14.73
2023-03-25T20:32:28.011Z,11.43
2023-03-25T20:35:06.705Z,15.93
2023-03-25T20:37:36.824Z,15.13
2023-03-25T20:40:11.558Z,11.93
2023-03-25T20:42:42.295Z,12.27
2023-03-25T20:45:14.060Z,13.27
2023-03-25T20:47:42.517Z,15.17
2023-03-25T20:50:12.888Z,17.97
2023-03-25T20:52:41.810Z,9.50
2023-03-25T20:55:11.254Z,13.73
2023-03-25T20:57:39.751Z,12.80
2023-03-25T21:00:14.381Z,11.33
2023-03-25T21:02:44.248Z,13.77
2023-03-25T21:05:12.564Z,9.77
2023-03-25T21:07:41.326Z,10.07
2023-03-25T21:10:10.694Z,14.20
2023-03-25T21:12:43.794Z,13.93
2023-03-25T21:15:15.418Z,10.73
2023-03-25T21:17:45.676Z,11.93
2023-03-25T21:20:14.099Z,11.57
2023-03-25T21:22:44.269Z,12.07
2023-03-25T21:25:15.219Z,10.20
2023-03-25T21:27:44.974Z,8.93
2023-03-25T21:30:16.054Z,11.63
2023-03-25T21:32:44.311Z,11.70
2023-03-25T21:35:12.640Z,13.37
2023-03-25T21:37:40.823Z,11.03
2023-03-25T21:40:11.679Z,14.83
2023-03-25T21:42:41.095Z,11.97
2023-03-25T21:45:11.699Z,14.50
2023-03-25T21:47:41.567Z,10.57
2023-03-25T21:50:12.681Z,21.00
2023-03-25T21:52:46.293Z,8.80
2023-03-25T21:55:15.215Z,14.97
2023-03-25T21:57:44.676Z,12.50
2023-03-25T22:00:16.908Z,14.20
2023-03-25T22:02:47.716Z,13.50
2023-03-25T22:05:17.337Z,9.83
2023-03-25T22:07:45.635Z,21.20
2023-03-25T22:10:13.839Z,14.10
2023-03-25T22:12:42.014Z,15.80
2023-03-25T22:15:11.683Z,17.23
2023-03-25T22:17:39.983Z,14.60
2023-03-25T22:20:12.031Z,12.30
2023-03-25T22:22:40.466Z,13.50
2023-03-25T22:25:09.491Z,14.87
2023-03-25T22:27:37.810Z,11.80
2023-03-25T22:30:08.392Z,13.33
2023-03-25T22:32:48.055Z,9.70
2023-03-25T22:35:21.605Z,16.60
2023-03-25T22:37:52.593Z,9.93
2023-03-25T22:40:20.840Z,10.20
2023-03-25T22:42:48.977Z,21.23
2023-03-25T22:45:17.335Z,13.80
2023-03-25T22:47:45.758Z,13.10
2023-03-25T22:50:14.030Z,10.90
2023-03-25T22:52:43.594Z,16.20
2023-03-25T22:55:12.006Z,14.83
2023-03-25T22:57:40.791Z,14.13
2023-03-25T23:00:12.864Z,11.53
2023-03-25T23:02:42.112Z,11.83
2023-03-25T23:05:11.177Z,11.17
2023-03-25T23:07:39.460Z,16.40
2023-03-25T23:10:09.752Z,11.43
2023-03-25T23:12:37.948Z,13.10
2023-03-25T23:15:07.500Z,23.57
2023-03-25T23:17:36.294Z,13.00
2023-03-25T23:20:07.131Z,10.87
2023-03-25T23:22:35.464Z,14.57
2023-03-25T23:25:04.955Z,16.50
2023-03-25T23:27:35.435Z,12.70
2023-03-25T23:30:04.994Z,15.40
2023-03-25T23:32:34.345Z,18.27
2023-03-25T23:35:03.343Z,15.20
2023-03-25T23:37:34.791Z,12.43
2023-03-25T23:40:07.064Z,17.83
2023-03-25T23:42:36.605Z,15.87
2023-03-25T23:45:05.374Z,13.63
2023-03-25T23:47:33.569Z,15.03
2023-03-25T23:50:03.973Z,9.50
2023-03-25T23:52:33.459Z,14.07
2023-03-25T23:55:01.709Z,17.87
2023-03-25T23:57:30.537Z,17.57
